Time;durP1;ratioP1;P1;durP2;ratioP2;P2;SDS_P1;SDS_P2;PMS_P1;PMS_P2;Temp;Humidity;BMP_temperature;BMP_pressure;BME280_temperature;BME280_humidity;BME280_pressure;Samples;Min_cycle;Max_cycle;Signal;HPM_P1;HPM_P2
2022/06/08 00:00:58;;;;;;;25.45;19.27;;;;;;;11.80;100.00;96259.06;10361708;28;20194;-54
2022/06/08 00:05:58;;;;;;;19.95;14.75;;;;;;;11.87;100.00;96256.59;10360661;28;20308;-54
2022/06/08 00:10:58;;;;;;;20.67;15.85;;;;;;;11.88;100.00;96240.66;10329943;28;20273;-53
2022/06/08 00:15:59;;;;;;;20.40;15.95;;;;;;;11.88;100.00;96238.03;10326882;28;20230;-57
2022/06/08 00:20:59;;;;;;;19.02;15.43;;;;;;;11.91;100.00;96247.34;10310168;22;20613;-52
2022/06/08 00:26:00;;;;;;;18.15;15.50;;;;;;;11.85;100.00;96241.00;10288403;28;20292;-56
2022/06/08 00:31:01;;;;;;;19.85;16.23;;;;;;;11.84;100.00;96238.53;10288248;28;20768;-53
2022/06/08 00:36:02;;;;;;;19.60;15.38;;;;;;;11.65;100.00;96235.41;10303744;28;20186;-57
2022/06/08 00:41:40;;;;;;;19.48;14.68;;;;;;;11.60;100.00;96237.75;10287713;28;20191;-56
2022/06/08 00:46:40;;;;;;;16.10;12.77;;;;;;;11.58;100.00;96239.72;10286568;28;20334;-54
2022/06/08 00:51:41;;;;;;;17.85;11.32;;;;;;;11.60;100.00;96235.13;10287310;28;20199;-56
2022/06/08 00:56:45;;;;;;;13.90;11.88;;;;;;;11.53;100.00;96236.78;10286110;28;20218;-54
2022/06/08 01:01:45;;;;;;;12.32;10.60;;;;;;;11.60;100.00;96233.28;10286947;28;20195;-56
2022/06/08 01:06:52;;;;;;;13.00;9.52;;;;;;;11.64;100.00;96222.44;10285599;28;20226;-57
2022/06/08 01:11:57;;;;;;;9.52;8.52;;;;;;;11.71;100.00;96218.94;10285748;28;20199;-55
2022/06/08 01:17:02;;;;;;;11.27;8.20;;;;;;;11.74;100.00;96223.84;10286516;28;20252;-57
2022/06/08 01:22:06;;;;;;;10.00;7.93;;;;;;;11.57;100.00;96224.97;10285497;28;20209;-54
2022/06/08 01:27:42;;;;;;;9.70;6.95;;;;;;;11.54;100.00;96226.13;10285112;28;20237;-56
2022/06/08 01:33:08;;;;;;;8.32;6.90;;;;;;;11.41;100.00;96220.66;10285412;28;20194;-55
2022/06/08 01:38:32;;;;;;;8.97;6.90;;;;;;;11.41;100.00;96218.84;10286107;28;20277;-51
2022/06/08 01:43:55;;;;;;;6.63;5.93;;;;;;;11.45;100.00;96213.25;10284335;28;20273;-50
2022/06/08 01:49:11;;;;;;;6.28;5.68;;;;;;;11.28;100.00;96212.53;10284711;28;20210;-54
2022/06/08 01:54:19;;;;;;;8.10;6.47;;;;;;;11.19;100.00;96212.59;10286005;28;20194;-52
2022/06/08 01:59:27;;;;;;;10.68;5.63;;;;;;;11.22;100.00;96206.19;10287835;28;20209;-50
2022/06/08 02:05:12;;;;;;;6.18;5.57;;;;;;;11.25;100.00;96203.22;10276428;28;20195;-51
2022/06/08 02:10:21;;;;;;;5.90;5.20;;;;;;;11.07;100.00;96201.69;10290112;28;20222;-53
2022/06/08 02:15:34;;;;;;;6.83;5.20;;;;;;;11.15;100.00;96202.59;10293748;28;20183;-51
2022/06/08 02:20:49;;;;;;;9.90;4.90;;;;;;;11.15;100.00;96213.91;10276122;28;20333;-51
2022/06/08 02:26:06;;;;;;;6.53;4.23;;;;;;;11.20;100.00;96210.78;10276741;28;20313;-49
2022/06/08 02:31:20;;;;;;;5.43;4.37;;;;;;;11.22;100.00;96206.19;10291976;28;20930;-50
2022/06/08 02:36:33;;;;;;;5.07;4.50;;;;;;;11.10;100.00;96208.34;10292906;28;20585;-54
2022/06/08 02:41:35;;;;;;;4.63;4.17;;;;;;;11.18;100.00;96200.47;10291501;28;20206;-54
2022/06/08 02:47:10;;;;;;;4.93;3.67;;;;;;;11.18;100.00;96202.25;10274808;28;20270;-53
2022/06/08 02:52:23;;;;;;;5.43;4.17;;;;;;;11.10;100.00;96192.63;10288217;28;20203;-53
2022/06/08 02:57:51;;;;;;;4.20;3.80;;;;;;;11.08;100.00;96194.63;10292156;28;20206;-54
2022/06/08 03:02:56;;;;;;;4.83;3.47;;;;;;;11.03;100.00;96195.13;10276973;28;20191;-50
2022/06/08 03:08:07;;;;;;;3.97;3.57;;;;;;;10.97;100.00;96182.72;10291766;28;20218;-50
2022/06/08 03:13:17;;;;;;;4.67;3.80;;;;;;;10.91;100.00;96186.03;10289659;28;20195;-53
2022/06/08 03:18:18;;;;;;;5.90;4.20;;;;;;;10.83;100.00;96188.69;10290170;28;20740;-51
2022/06/08 03:23:18;;;;;;;5.23;3.80;;;;;;;10.75;100.00;96189.56;10290239;28;20193;-52
2022/06/08 03:28:19;;;;;;;5.27;3.60;;;;;;;10.70;100.00;96182.22;10289204;28;20226;-50
2022/06/08 03:33:20;;;;;;;5.33;2.97;;;;;;;10.80;100.00;96189.03;10289378;28;20222;-50
2022/06/08 03:38:20;;;;;;;5.80;3.30;;;;;;;10.92;100.00;96184.22;10288982;28;20772;-54
2022/06/08 03:43:22;;;;;;;3.83;3.17;;;;;;;10.87;100.00;96176.88;10290169;28;20195;-50
2022/06/08 03:48:23;;;;;;;4.27;3.60;;;;;;;10.80;100.00;96184.59;10289611;28;20218;-51
2022/06/08 03:53:34;;;;;;;4.43;3.60;;;;;;;10.69;100.00;96183.19;10288892;28;20191;-51
2022/06/08 03:58:34;;;;;;;3.73;3.30;;;;;;;10.91;100.00;96186.03;10288369;28;20211;-50
2022/06/08 04:03:39;;;;;;;4.70;2.60;;;;;;;11.02;100.00;96179.59;10288297;28;20658;-50
2022/06/08 04:08:39;;;;;;;4.37;3.30;;;;;;;10.96;100.00;96173.22;10289206;28;20272;-51
2022/06/08 04:13:41;;;;;;;3.93;2.63;;;;;;;10.98;100.00;96176.50;10289082;28;20269;-50
2022/06/08 04:18:47;;;;;;;3.70;2.77;;;;;;;11.14;100.00;96174.78;10287635;28;20235;-50
2022/06/08 04:23:49;;;;;;;5.27;3.00;;;;;;;11.07;100.00;96175.47;10286535;28;20692;-53
2022/06/08 04:28:52;;;;;;;6.93;2.83;;;;;;;11.28;100.00;96181.88;10287052;28;20222;-52
2022/06/08 04:33:54;;;;;;;3.03;2.73;;;;;;;11.40;100.00;96170.00;10287408;28;20202;-52
2022/06/08 04:38:59;;;;;;;5.17;2.90;;;;;;;11.61;100.00;96171.16;10286726;28;20218;-51
2022/06/08 04:44:02;;;;;;;2.57;2.33;;;;;;;12.09;100.00;96163.06;10286601;28;20314;-50
2022/06/08 04:49:04;;;;;;;4.82;2.47;;;;;;;12.40;100.00;96157.63;10286312;28;20273;-50
2022/06/08 04:54:05;;;;;;;2.50;2.30;;;;;;;12.65;100.00;96155.53;10286006;28;20620;-53
2022/06/08 04:59:06;;;;;;;2.58;2.00;;;;;;;12.85;100.00;96150.50;10286381;28;20205;-58
2022/06/08 05:04:10;;;;;;;5.90;2.30;;;;;;;13.03;100.00;96144.84;10286073;28;20183;-58
2022/06/08 05:09:11;;;;;;;5.07;2.35;;;;;;;13.40;100.00;96139.59;10286064;28;20218;-55
2022/06/08 05:14:16;;;;;;;3.30;2.25;;;;;;;13.76;100.00;96146.56;10285884;28;20194;-57
2022/06/08 05:19:17;;;;;;;2.92;2.00;;;;;;;14.24;100.00;96144.06;10285431;28;20976;-56
2022/06/08 05:24:18;;;;;;;4.25;2.30;;;;;;;14.83;100.00;96136.69;10285483;28;20202;-56
2022/06/08 05:29:23;;;;;;;3.17;1.90;;;;;;;15.26;100.00;96148.78;10286034;28;20226;-57
2022/06/08 05:34:28;;;;;;;3.70;1.60;;;;;;;15.85;100.00;96142.78;10284804;28;20581;-58
2022/06/08 05:39:28;;;;;;;3.88;1.60;;;;;;;16.05;100.00;96121.63;10285090;28;20210;-56
2022/06/08 05:44:29;;;;;;;2.63;1.95;;;;;;;16.29;100.00;96127.25;10284683;28;20190;-59
2022/06/08 05:49:35;;;;;;;2.33;1.10;;;;;;;17.17;92.57;96101.31;10284753;28;20222;-59
2022/06/08 05:54:38;;;;;;;1.48;1.30;;;;;;;17.58;90.57;96100.81;10284969;28;20191;-58
2022/06/08 05:59:39;;;;;;;2.15;1.52;;;;;;;17.90;87.81;96084.03;10284476;28;20693;-56
2022/06/08 06:04:41;;;;;;;1.27;0.98;;;;;;;18.20;85.12;96076.22;10284694;28;20194;-59
2022/06/08 06:09:42;;;;;;;6.50;1.25;;;;;;;18.09;81.51;96051.25;10284677;28;20230;-59
2022/06/08 06:14:46;;;;;;;1.15;1.00;;;;;;;18.12;80.72;96045.50;10284633;28;20585;-58
2022/06/08 06:19:46;;;;;;;1.17;0.80;;;;;;;18.43;79.13;96033.09;10284300;28;20242;-58
2022/06/08 06:25:01;;;;;;;3.95;1.15;;;;;;;18.37;79.25;96044.59;10284793;28;20333;-59
2022/06/08 06:30:25;;;;;;;0.60;0.60;;;;;;;19.30;76.39;96023.97;10285255;28;20223;-58
2022/06/08 06:35:44;;;;;;;0.80;0.80;;;;;;;19.99;73.44;96004.03;10292379;28;20183;-59
2022/06/08 06:40:44;;;;;;;1.67;0.77;;;;;;;20.58;70.06;95980.72;10285406;28;20218;-55
2022/06/08 06:45:47;;;;;;;0.82;0.82;;;;;;;20.67;68.16;95952.72;10285288;28;20222;-59
2022/06/08 06:51:12;;;;;;;2.20;1.00;;;;;;;20.68;67.35;95956.16;10283253;28;20207;-57
2022/06/08 06:56:13;;;;;;;2.38;0.60;;;;;;;21.92;63.16;95913.53;10290921;28;20265;-59
2022/06/08 07:01:21;;;;;;;0.70;0.60;;;;;;;20.74;64.31;95919.81;10289967;28;20302;-60
2022/06/08 07:06:21;;;;;;;0.95;0.70;;;;;;;21.98;61.50;95893.88;10288746;28;20281;-61
2022/06/08 07:17:47;;;;;;;0.70;0.70;;;;;;;21.87;60.82;95884.16;10295743;28;20222;-60
2022/06/08 07:22:50;;;;;;;1.08;0.60;;;;;;;22.97;59.07;95864.38;10286934;28;20222;-60
2022/06/08 07:27:50;;;;;;;1.98;0.70;;;;;;;21.53;61.25;95894.91;10289154;28;20231;-59
2022/06/08 07:32:50;;;;;;;0.70;0.70;;;;;;;21.08;62.67;95906.50;10289705;28;20210;-60
2022/06/08 07:37:51;;;;;;;2.30;0.88;;;;;;;22.04;61.34;95919.53;10289224;28;20293;-61
2022/06/08 07:42:51;;;;;;;0.60;0.55;;;;;;;22.44;59.80;95880.25;10288385;28;20209;-60
2022/06/08 07:53:11;;;;;;;0.80;0.73;;;;;;;21.36;61.78;95908.22;10289172;28;20207;-60
2022/06/08 07:58:11;;;;;;;3.85;0.85;;;;;;;20.93;63.59;95931.81;10287577;28;20202;-55
2022/06/08 08:03:11;;;;;;;4.88;0.90;;;;;;;21.02;63.52;95924.25;10288279;28;20190;-57
2022/06/08 08:08:15;;;;;;;1.05;0.80;;;;;;;20.14;65.06;95940.50;10296085;28;20246;-55
2022/06/08 08:13:15;;;;;;;2.65;0.77;;;;;;;19.47;66.76;95955.03;10303289;28;20285;-56
2022/06/08 08:18:16;;;;;;;1.08;0.93;;;;;;;19.73;68.74;95998.13;10286051;28;20607;-59
2022/06/08 08:23:16;;;;;;;0.70;0.70;;;;;;;21.02;66.60;95977.50;10284548;28;20278;-58
2022/06/08 08:28:17;;;;;;;2.25;0.90;;;;;;;19.96;68.70;96003.44;10287494;28;20230;-58
2022/06/08 08:33:17;;;;;;;1.17;1.02;;;;;;;20.00;68.27;95994.97;10286040;28;20296;-57
2022/06/08 08:38:19;;;;;;;1.40;0.90;;;;;;;20.52;67.20;95987.00;10285707;28;20584;-55
2022/06/08 08:43:23;;;;;;;0.90;0.90;;;;;;;20.02;69.66;96028.28;10286282;28;20191;-58
2022/06/08 08:48:29;;;;;;;1.95;0.90;;;;;;;20.23;68.82;96010.91;10285120;28;20647;-57
2022/06/08 08:54:03;;;;;;;2.55;1.00;;;;;;;20.75;67.71;95990.59;10299409;28;20207;-59
2022/06/08 08:59:16;;;;;;;1.40;1.02;;;;;;;21.42;65.95;95965.88;10285574;28;20223;-59
2022/06/08 09:04:32;;;;;;;1.42;0.82;;;;;;;22.08;64.83;95955.34;10285533;28;20202;-59
2022/06/08 09:09:33;;;;;;;1.60;1.05;;;;;;;23.46;59.34;95864.19;10283947;28;20222;-59
2022/06/08 09:14:49;;;;;;;1.00;0.95;;;;;;;23.89;58.13;95864.16;10284340;28;20193;-60
2022/06/08 09:19:50;;;;;;;2.42;0.82;;;;;;;23.55;58.81;95864.47;10263791;28;20239;-60
2022/06/08 09:24:57;;;;;;;0.68;0.68;;;;;;;23.22;59.40;95866.44;10284718;28;20218;-60
2022/06/08 09:30:18;;;;;;;2.53;1.20;;;;;;;23.39;61.01;95905.59;10285424;28;20226;-59
2022/06/08 09:35:26;;;;;;;1.42;0.98;;;;;;;22.81;61.06;95884.81;10284928;28;20191;-60
2022/06/08 09:40:36;;;;;;;1.27;1.00;;;;;;;22.46;62.26;95912.00;10284266;28;20206;-60
2022/06/08 09:45:43;;;;;;;2.92;1.13;;;;;;;21.99;63.89;95938.16;10300974;28;20365;-61
2022/06/08 09:51:41;;;;;;;1.83;0.98;;;;;;;22.49;62.35;95922.19;10282535;28;20641;-61
2022/06/08 09:57:07;;;;;;;0.70;0.70;;;;;;;20.67;66.25;95963.34;10246246;28;20222;-59
2022/06/08 10:08:27;;;;;;;1.85;0.90;;;;;;;21.57;64.10;95917.34;10284906;28;20223;-60
2022/06/08 10:14:09;;;;;;;0.60;0.60;;;;;;;23.83;59.09;95849.91;10260849;28;20550;-59
2022/06/08 10:19:15;;;;;;;5.45;1.00;;;;;;;24.92;55.63;95798.13;10163445;29;20244;-60
2022/06/08 10:24:22;;;;;;;1.23;0.90;;;;;;;25.98;54.95;95810.66;10271632;28;20203;-60
2022/06/08 10:29:43;;;;;;;1.10;0.90;;;;;;;26.98;48.01;95656.44;10293292;28;20226;-60
2022/06/08 10:34:44;;;;;;;2.25;0.90;;;;;;;26.89;48.78;95683.16;10295203;28;20208;-58
2022/06/08 10:39:48;;;;;;;1.00;0.90;;;;;;;26.60;50.27;95740.41;10295635;28;20215;-60
2022/06/08 10:44:51;;;;;;;1.50;1.10;;;;;;;25.43;51.21;95715.97;10306222;28;20345;-59
2022/06/08 10:50:01;;;;;;;2.55;1.30;;;;;;;25.16;49.89;95654.66;10292835;28;20230;-59
2022/06/08 10:55:17;;;;;;;1.08;0.93;;;;;;;25.71;50.23;95705.63;10294460;28;20591;-60
2022/06/08 11:00:18;;;;;;;1.52;1.00;;;;;;;25.37;49.66;95658.09;10291046;28;20736;-58
2022/06/08 11:05:29;;;;;;;1.10;1.00;;;;;;;26.07;52.98;95770.63;10293280;28;20306;-59
2022/06/08 11:10:44;;;;;;;3.83;1.33;;;;;;;25.73;49.90;95680.13;10288618;28;20310;-59
2022/06/08 11:16:11;;;;;;;1.05;0.80;;;;;;;25.48;52.88;95742.75;10290202;28;20248;-60
2022/06/08 11:21:14;;;;;;;2.25;1.10;;;;;;;25.64;52.94;95749.66;10305660;28;20249;-57
2022/06/08 11:26:23;;;;;;;4.60;1.25;;;;;;;23.62;57.68;95787.50;10291327;28;20698;-60
2022/06/08 11:31:38;;;;;;;1.20;1.10;;;;;;;24.74;55.26;95771.91;10292446;28;20615;-59
2022/06/08 11:37:15;;;;;;;2.72;0.90;;;;;;;24.07;56.08;95763.84;10291075;28;20723;-60
2022/06/08 11:42:50;;;;;;;2.20;1.15;;;;;;;23.82;58.04;95810.03;10291028;28;20195;-59
2022/06/08 11:48:29;;;;;;;4.38;0.90;;;;;;;23.76;59.30;95827.94;10292467;28;20222;-59
2022/06/08 11:53:36;;;;;;;1.88;1.00;;;;;;;25.07;55.79;95785.78;10289739;28;20218;-58
2022/06/08 11:58:42;;;;;;;2.08;0.80;;;;;;;25.12;54.56;95742.88;10296780;28;20298;-55
2022/06/08 12:04:01;;;;;;;2.75;1.17;;;;;;;25.66;53.13;95727.91;10319028;28;20198;-56
2022/06/08 12:09:11;;;;;;;1.58;0.88;;;;;;;26.27;51.37;95693.69;10300038;28;20226;-60
2022/06/08 12:14:48;;;;;;;1.83;1.17;;;;;;;25.78;51.10;95674.72;10289592;28;20214;-60
2022/06/08 12:19:55;;;;;;;2.60;0.90;;;;;;;24.96;52.44;95687.72;10288823;28;20239;-60
2022/06/08 12:25:14;;;;;;;1.30;0.95;;;;;;;24.46;54.03;95696.38;10291019;28;20736;-59
2022/06/08 12:30:22;;;;;;;1.00;0.90;;;;;;;24.61;57.00;95778.63;10285116;28;20329;-59
2022/06/08 12:35:26;;;;;;;1.80;1.00;;;;;;;25.69;53.09;95707.78;10287372;28;20187;-59
2022/06/08 12:40:30;;;;;;;1.30;0.90;;;;;;;26.25;52.13;95685.94;10354978;23;20245;-59
2022/06/08 12:45:33;;;;;;;3.28;1.50;;;;;;;26.06;51.75;95683.13;10369912;28;20252;-61
2022/06/08 12:50:33;;;;;;;5.35;2.05;;;;;;;25.81;52.69;95705.56;10363133;28;20252;-61
2022/06/08 12:55:38;;;;;;;1.60;0.90;;;;;;;25.52;50.81;95635.75;10348804;28;20209;-60
2022/06/08 13:00:46;;;;;;;2.42;1.90;;;;;;;24.30;56.41;95737.63;10366257;28;20221;-59
2022/06/08 13:05:47;;;;;;;1.60;1.40;;;;;;;24.49;55.64;95709.25;10364665;28;20220;-61
2022/06/08 13:10:50;;;;;;;1.90;1.08;;;;;;;24.86;54.23;95684.00;10366578;28;20205;-61
2022/06/08 13:15:50;;;;;;;3.05;1.52;;;;;;;25.16;53.88;95697.56;10346380;28;20570;-57
2022/06/08 13:20:57;;;;;;;5.00;1.67;;;;;;;26.47;52.77;95703.44;10364898;28;20216;-61
2022/06/08 13:25:59;;;;;;;1.40;1.10;;;;;;;25.36;52.54;95646.56;10366263;28;20268;-60
2022/06/08 13:31:00;;;;;;;4.80;3.53;;;;;;;27.10;49.51;95626.47;10347612;28;20189;-60
2022/06/08 13:36:05;;;;;;;9.77;5.60;;;;;;;27.28;49.94;95633.75;10363298;28;20199;-60
2022/06/08 13:41:05;;;;;;;1.95;1.10;;;;;;;27.57;47.52;95581.72;10347201;28;20208;-59
2022/06/08 13:46:08;;;;;;;3.05;1.10;;;;;;;26.21;51.51;95649.97;10364686;28;20572;-59
2022/06/08 13:51:09;;;;;;;2.65;1.50;;;;;;;25.87;51.21;95633.88;10348169;28;20220;-61
2022/06/08 13:56:11;;;;;;;1.23;1.13;;;;;;;25.02;54.13;95675.91;10369212;28;20199;-60
2022/06/08 14:01:21;;;;;;;2.53;1.15;;;;;;;24.77;50.70;95565.09;10372220;28;20201;-60
2022/06/08 14:17:01;;;;;;;1.17;1.08;;;;;;;22.08;63.71;95810.47;10372477;28;20209;-64
2022/06/08 14:22:04;;;;;;;2.60;1.00;;;;;;;22.37;63.22;95805.69;10370917;28;20193;-60
2022/06/08 14:27:06;;;;;;;1.73;0.85;;;;;;;23.36;61.38;95778.59;10361791;28;20873;-62
2022/06/08 14:32:20;;;;;;;7.28;1.00;;;;;;;24.22;58.28;95721.03;10369456;28;20189;-62
2022/06/08 14:37:22;;;;;;;0.70;0.63;;;;;;;24.99;55.99;95692.53;10369919;28;20379;-64
2022/06/08 14:42:22;;;;;;;4.45;0.93;;;;;;;24.15;54.95;95642.06;10366586;28;20247;-62
2022/06/08 14:47:26;;;;;;;1.13;0.63;;;;;;;24.75;56.83;95699.31;10333904;28;20572;-60
2022/06/08 14:52:26;;;;;;;0.73;0.63;;;;;;;24.82;55.15;95655.34;10351744;28;20217;-60
2022/06/08 14:57:32;;;;;;;1.63;1.10;;;;;;;25.10;55.46;95667.31;10346503;28;20285;-63
2022/06/08 15:02:36;;;;;;;3.65;1.20;;;;;;;25.93;52.93;95627.41;10330489;28;20437;-63
2022/06/08 15:07:37;;;;;;;1.40;0.90;;;;;;;25.37;54.79;95648.16;10329743;28;20621;-62
2022/06/08 15:12:38;;;;;;;0.85;0.70;;;;;;;25.20;55.29;95651.16;10348493;28;20397;-62
2022/06/08 15:17:40;;;;;;;1.00;0.70;;;;;;;26.22;52.27;95610.50;10370971;28;20704;-62
2022/06/08 15:22:40;;;;;;;1.35;0.70;;;;;;;24.26;55.79;95619.59;10367072;28;20235;-61
2022/06/08 15:27:48;;;;;;;1.13;0.80;;;;;;;24.56;59.29;95707.09;10362348;28;20217;-64
2022/06/08 15:32:50;;;;;;;1.13;0.80;;;;;;;25.08;56.60;95656.88;10333365;28;20560;-63
2022/06/08 15:37:52;;;;;;;2.33;0.77;;;;;;;27.55;49.93;95567.75;10368755;28;20723;-60
2022/06/08 15:42:54;;;;;;;0.93;0.75;;;;;;;27.86;49.20;95543.81;10368735;28;20201;-60
2022/06/08 15:47:57;;;;;;;3.13;1.05;;;;;;;26.09;51.46;95558.28;10369547;28;20252;-60
2022/06/08 15:53:02;;;;;;;3.03;0.75;;;;;;;25.50;54.39;95614.56;10353625;28;20380;-59
2022/06/08 15:58:06;;;;;;;0.80;0.80;;;;;;;25.14;54.11;95597.88;10328672;28;20217;-60
2022/06/08 16:03:06;;;;;;;4.20;0.98;;;;;;;25.12;52.17;95535.72;10333416;28;20205;-59
2022/06/08 16:08:07;;;;;;;3.33;0.80;;;;;;;24.24;54.88;95580.78;10363308;28;20687;-62
2022/06/08 16:13:12;;;;;;;5.47;1.10;;;;;;;23.54;56.91;95613.44;10368596;28;20527;-63
2022/06/08 16:18:13;;;;;;;1.23;0.80;;;;;;;23.93;59.04;95672.59;10369323;28;20229;-63
2022/06/08 16:23:13;;;;;;;0.95;0.80;;;;;;;24.65;55.18;95618.19;10369723;28;20189;-63
2022/06/08 16:28:14;;;;;;;1.15;0.90;;;;;;;24.95;53.08;95563.69;10369474;28;20217;-62
2022/06/08 16:33:17;;;;;;;2.05;0.80;;;;;;;25.47;53.38;95580.28;10369323;28;20201;-60
2022/06/08 16:38:17;;;;;;;2.17;0.75;;;;;;;25.82;53.27;95583.75;10366513;28;20240;-61
2022/06/08 16:43:18;;;;;;;2.42;1.70;;;;;;;25.02;50.49;95483.78;10369118;28;20258;-61
2022/06/08 16:48:20;;;;;;;1.20;1.10;;;;;;;22.87;55.27;95538.50;10368390;28;20672;-63
2022/06/08 16:53:21;;;;;;;2.33;1.02;;;;;;;22.08;57.20;95570.41;10368504;28;20672;-64
2022/06/08 17:03:40;;;;;;;3.58;1.00;;;;;;;21.55;58.65;95592.44;10365828;28;20897;-60
2022/06/08 17:08:40;;;;;;;1.20;0.98;;;;;;;21.27;59.74;95619.31;10367820;28;20213;-60
2022/06/08 17:13:41;;;;;;;3.67;0.80;;;;;;;21.21;59.58;95623.81;10367284;28;20727;-56
2022/06/08 17:18:42;;;;;;;2.30;1.35;;;;;;;20.95;60.97;95638.69;10367205;28;20708;-57
2022/06/08 17:23:42;;;;;;;1.23;1.10;;;;;;;21.14;60.82;95652.50;10367522;28;20718;-57
2022/06/08 17:28:42;;;;;;;2.65;1.90;;;;;;;21.13;63.13;95698.81;10366292;28;20292;-55
2022/06/08 17:33:43;;;;;;;4.18;2.33;;;;;;;21.16;63.22;95693.81;10367177;28;20204;-57
2022/06/08 17:38:43;;;;;;;2.78;2.25;;;;;;;20.94;64.87;95725.75;10366295;28;20237;-54
2022/06/08 17:43:44;;;;;;;3.70;2.55;;;;;;;20.90;64.39;95710.53;10367283;28;20577;-59
2022/06/08 17:48:44;;;;;;;4.28;2.40;;;;;;;20.62;65.57;95722.91;10366537;28;20223;-58
2022/06/08 17:53:45;;;;;;;6.25;2.90;;;;;;;20.52;66.24;95730.72;10366696;28;20240;-59
2022/06/08 17:58:45;;;;;;;3.80;2.70;;;;;;;20.38;66.94;95735.56;10367008;28;20225;-58
2022/06/08 18:03:46;;;;;;;3.42;2.55;;;;;;;20.43;67.54;95744.44;10366952;28;20192;-59
2022/06/08 18:08:46;;;;;;;6.25;2.50;;;;;;;19.86;69.18;95766.66;10366896;28;20296;-55
2022/06/08 18:13:48;;;;;;;5.40;2.90;;;;;;;19.79;70.71;95779.28;10366675;28;20190;-58
2022/06/08 18:18:48;;;;;;;6.20;3.08;;;;;;;20.05;70.97;95775.22;10366143;28;20592;-58
2022/06/08 18:23:50;;;;;;;4.32;3.22;;;;;;;19.85;71.84;95773.00;10366747;28;20239;-57
2022/06/08 18:28:51;;;;;;;5.22;2.83;;;;;;;19.84;72.69;95782.03;10366002;28;20236;-57
2022/06/08 18:33:51;;;;;;;6.95;2.90;;;;;;;19.63;74.82;95780.78;10359859;28;20196;-59
2022/06/08 18:38:53;;;;;;;4.60;2.97;;;;;;;19.13;76.86;95784.06;10352008;23;20247;-56
2022/06/08 18:43:54;;;;;;;3.75;2.67;;;;;;;18.89;79.42;95778.78;10371217;28;20189;-57
2022/06/08 18:48:55;;;;;;;3.38;2.92;;;;;;;19.09;78.75;95753.72;10373290;28;20224;-55
2022/06/08 18:53:55;;;;;;;3.85;2.63;;;;;;;18.96;80.50;95749.44;10373233;28;20197;-58
2022/06/08 18:58:56;;;;;;;3.03;2.55;;;;;;;18.82;82.08;95755.00;10371545;28;20591;-57
2022/06/08 19:03:57;;;;;;;7.43;3.80;;;;;;;18.21;86.30;95769.47;10370436;28;20193;-56
2022/06/08 19:08:57;;;;;;;6.72;2.65;;;;;;;17.98;89.60;95771.06;10372414;28;20241;-57
2022/06/08 19:13:58;;;;;;;6.03;3.15;;;;;;;17.89;90.98;95775.88;10372133;28;20208;-57
2022/06/08 19:24:17;;;;;;;7.22;4.13;;;;;;;17.44;95.22;95785.00;10371822;28;20197;-57
2022/06/08 19:29:17;;;;;;;4.97;3.15;;;;;;;17.25;95.47;95786.84;10370938;28;20288;-56
2022/06/08 19:34:18;;;;;;;4.88;4.18;;;;;;;16.99;98.52;95795.06;10371358;28;20197;-53
2022/06/08 19:39:19;;;;;;;8.75;6.00;;;;;;;16.92;100.00;95795.94;10370332;28;20233;-55
2022/06/08 19:44:23;;;;;;;4.90;4.00;;;;;;;16.81;100.00;95801.91;10371018;28;20208;-56
2022/06/08 19:49:23;;;;;;;6.38;4.10;;;;;;;17.04;99.68;95796.00;10370805;28;20300;-51
2022/06/08 19:54:23;;;;;;;8.52;4.80;;;;;;;17.06;97.88;95788.69;10369726;28;20679;-51
2022/06/08 19:59:24;;;;;;;4.22;3.33;;;;;;;17.09;94.57;95782.94;10370424;28;20308;-54
2022/06/08 20:04:24;;;;;;;3.13;2.65;;;;;;;17.28;90.55;95781.09;10369861;28;20204;-56
2022/06/08 20:09:26;;;;;;;6.35;2.10;;;;;;;17.40;88.29;95769.78;10369920;28;20209;-58
2022/06/08 20:14:27;;;;;;;2.38;2.17;;;;;;;17.38;86.10;95764.69;10369724;28;20197;-57
2022/06/08 20:19:27;;;;;;;2.88;1.90;;;;;;;17.36;85.02;95760.66;10368405;28;20232;-59
2022/06/08 20:24:27;;;;;;;5.63;1.80;;;;;;;17.45;83.94;95754.81;10369223;28;20201;-56
2022/06/08 20:29:29;;;;;;;1.60;1.50;;;;;;;17.37;83.92;95756.97;10368608;28;20204;-56
2022/06/08 20:34:33;;;;;;;5.25;1.60;;;;;;;17.13;85.63;95771.91;10369111;28;20197;-54
2022/06/08 20:39:34;;;;;;;1.83;1.55;;;;;;;17.34;84.05;95763.53;10368716;28;20471;-51
2022/06/08 20:44:36;;;;;;;1.70;1.58;;;;;;;17.15;83.81;95777.78;10368459;28;20197;-51
2022/06/08 20:49:36;;;;;;;1.15;1.05;;;;;;;17.38;81.99;95770.00;10368887;28;20217;-53
2022/06/08 20:54:38;;;;;;;1.27;1.17;;;;;;;17.41;81.46;95768.72;10368145;28;20284;-58
2022/06/08 20:59:40;;;;;;;1.20;1.10;;;;;;;17.31;82.16;95777.19;10368574;28;20229;-57
2022/06/08 21:04:41;;;;;;;3.85;1.40;;;;;;;17.05;84.19;95800.28;10367091;28;20216;-58
2022/06/08 21:09:41;;;;;;;1.88;1.23;;;;;;;16.83;85.91;95804.34;10368044;28;20241;-57
2022/06/08 21:14:43;;;;;;;3.03;1.65;;;;;;;16.67;87.15;95800.44;10367886;28;20228;-58
2022/06/08 21:19:43;;;;;;;1.58;1.20;;;;;;;16.25;90.40;95811.56;10366931;28;20236;-58
2022/06/08 21:24:44;;;;;;;2.60;1.50;;;;;;;16.03;91.97;95796.06;10367830;28;20559;-57
2022/06/08 21:29:44;;;;;;;1.50;1.40;;;;;;;15.86;92.91;95806.31;10366934;28;20623;-57
2022/06/08 21:34:44;;;;;;;1.27;1.17;;;;;;;15.77;95.21;95801.44;10367267;28;20721;-56
2022/06/08 21:39:45;;;;;;;1.60;1.50;;;;;;;15.69;94.77;95795.38;10367177;28;20299;-56
2022/06/08 21:44:46;;;;;;;3.17;1.67;;;;;;;15.69;95.72;95795.38;10366888;28;20197;-58
2022/06/08 21:49:47;;;;;;;1.40;1.30;;;;;;;15.68;96.03;95799.06;10367390;28;20224;-58
2022/06/08 21:54:47;;;;;;;3.17;1.38;;;;;;;15.54;98.00;95797.50;10366661;28;20637;-57
2022/06/08 21:59:48;;;;;;;2.03;1.80;;;;;;;15.53;98.15;95795.91;10366999;28;20320;-56
2022/06/08 22:04:53;;;;;;;1.55;1.45;;;;;;;15.37;99.21;95789.25;10366577;28;20193;-53
2022/06/08 22:09:53;;;;;;;4.13;1.67;;;;;;;15.30;100.00;95791.91;10366219;28;20209;-57
2022/06/08 22:14:54;;;;;;;1.55;1.33;;;;;;;15.03;100.00;95793.03;10367124;28;20212;-55
2022/06/08 22:19:54;;;;;;;2.90;1.90;;;;;;;14.82;100.00;95792.25;10373636;28;20233;-55
2022/06/08 22:24:55;;;;;;;2.53;2.08;;;;;;;14.77;100.00;95799.97;10374428;28;20228;-51
2022/06/08 22:29:56;;;;;;;5.03;1.55;;;;;;;14.70;100.00;95796.53;10373896;28;20212;-51
2022/06/08 22:34:56;;;;;;;2.55;1.63;;;;;;;14.48;100.00;95794.09;10373802;28;20243;-52
2022/06/08 22:39:57;;;;;;;2.38;1.42;;;;;;;14.52;100.00;95787.41;10373514;28;20257;-57
2022/06/08 22:44:57;;;;;;;2.90;1.50;;;;;;;14.49;100.00;95787.00;10373115;28;20205;-52
2022/06/08 22:49:58;;;;;;;3.28;1.98;;;;;;;14.54;100.00;95790.63;10373342;28;20256;-54
2022/06/08 22:54:58;;;;;;;2.70;1.60;;;;;;;14.55;100.00;95788.84;10372827;28;20733;-53
2022/06/08 22:59:59;;;;;;;2.42;1.88;;;;;;;14.38;100.00;95783.97;10372755;28;20611;-56
2022/06/08 23:05:00;;;;;;;8.27;1.90;;;;;;;14.22;100.00;95784.38;10372573;28;20201;-52
2022/06/08 23:10:02;;;;;;;2.22;1.90;;;;;;;14.13;100.00;95790.84;10372131;28;20564;-57
2022/06/08 23:15:03;;;;;;;2.25;1.80;;;;;;;14.03;100.00;95786.78;10372368;28;20216;-54
2022/06/08 23:25:23;;;;;;;1.70;1.60;;;;;;;14.12;100.00;95782.13;10371785;28;20200;-53
2022/06/08 23:30:24;;;;;;;2.28;2.08;;;;;;;13.99;100.00;95782.91;10371101;28;20197;-54
2022/06/08 23:35:25;;;;;;;2.60;2.05;;;;;;;13.95;100.00;95775.63;10371372;28;20185;-51
2022/06/08 23:40:25;;;;;;;3.15;1.90;;;;;;;13.96;100.00;95785.16;10371318;28;20233;-55
2022/06/08 23:45:26;;;;;;;1.77;1.67;;;;;;;13.82;100.00;95774.59;10370864;28;20293;-56
2022/06/08 23:55:45;;;;;;;2.38;1.90;;;;;;;13.48;100.00;95772.91;10370491;28;20192;-51
